createdAt,value
2022-08-10T00:00:45.673Z,1021.83
2022-08-10T00:01:45.835Z,1021.81
2022-08-10T00:02:46.026Z,1021.79
2022-08-10T00:03:45.783Z,1021.79
2022-08-10T00:04:45.821Z,1021.80
2022-08-10T00:05:52.547Z,1021.80
2022-08-10T00:06:45.888Z,1021.78
2022-08-10T00:07:45.929Z,1021.80
2022-08-10T00:08:45.967Z,1021.79
2022-08-10T00:09:50.746Z,1021.80
2022-08-10T00:12:54.340Z,1021.81
2022-08-10T00:13:46.138Z,1021.80
2022-08-10T00:14:46.173Z,1021.79
2022-08-10T00:15:53.739Z,1021.78
2022-08-10T00:16:46.557Z,1021.77
2022-08-10T00:17:46.288Z,1021.80
2022-08-10T00:18:46.343Z,1021.76
2022-08-10T00:20:03.082Z,1021.80
2022-08-10T00:20:46.389Z,1021.83
2022-08-10T00:21:46.444Z,1021.80
2022-08-10T00:22:57.307Z,1021.82
2022-08-10T00:23:46.501Z,1021.80
2022-08-10T00:24:46.538Z,1021.81
2022-08-10T00:25:46.571Z,1021.81
2022-08-10T00:27:51.742Z,1021.76
2022-08-10T00:28:01.679Z,1021.75
2022-08-10T00:30:46.744Z,1021.71
2022-08-10T00:31:58.537Z,1021.68
2022-08-10T00:32:46.836Z,1021.70
2022-08-10T00:33:46.850Z,1021.69
2022-08-10T00:34:46.884Z,1021.69
2022-08-10T00:35:47.173Z,1021.67
2022-08-10T00:36:47.116Z,1021.65
2022-08-10T00:37:51.670Z,1021.65
2022-08-10T00:38:47.029Z,1021.65
2022-08-10T00:39:47.128Z,1021.69
2022-08-10T00:40:47.102Z,1021.60
2022-08-10T00:42:01.792Z,1021.61
2022-08-10T00:42:47.173Z,1021.60
2022-08-10T00:43:47.214Z,1021.60
2022-08-10T00:44:47.239Z,1021.58
2022-08-10T00:45:47.278Z,1021.54
2022-08-10T00:46:47.315Z,1021.54
2022-08-10T00:47:47.352Z,1021.50
2022-08-10T00:48:47.681Z,1021.52
2022-08-10T00:49:47.422Z,1021.53
2022-08-10T00:50:47.461Z,1021.47
2022-08-10T00:51:48.523Z,1021.46
2022-08-10T00:52:47.531Z,1021.46
2022-08-10T00:53:47.564Z,1021.47
2022-08-10T00:54:47.598Z,1021.47
2022-08-10T00:56:35.160Z,1021.51
2022-08-10T00:57:17.646Z,1021.50
2022-08-10T00:57:55.218Z,1021.49
2022-08-10T00:58:47.738Z,1021.49
2022-08-10T00:59:59.210Z,1021.48
2022-08-10T01:00:47.808Z,1021.48
2022-08-10T01:02:08.598Z,1021.49
2022-08-10T01:02:47.940Z,1021.51
2022-08-10T01:04:40.105Z,1021.51
2022-08-10T01:05:00.376Z,1021.47
2022-08-10T01:05:51.675Z,1021.50
2022-08-10T01:06:48.028Z,1021.49
2022-08-10T01:07:48.059Z,1021.46
2022-08-10T01:08:48.394Z,1021.48
2022-08-10T01:09:57.218Z,1021.44
2022-08-10T01:10:48.164Z,1021.46
2022-08-10T01:12:39.701Z,1021.42
2022-08-10T01:12:48.473Z,1021.39
2022-08-10T01:13:48.272Z,1021.40
2022-08-10T01:14:48.308Z,1021.42
2022-08-10T01:15:48.644Z,1021.44
2022-08-10T01:16:48.376Z,1021.42
2022-08-10T01:17:50.843Z,1021.41
2022-08-10T01:18:48.448Z,1021.44
2022-08-10T01:19:48.491Z,1021.43
2022-08-10T01:20:48.518Z,1021.43
2022-08-10T01:21:56.816Z,1021.41
2022-08-10T01:22:48.590Z,1021.39
2022-08-10T01:23:48.627Z,1021.43
2022-08-10T01:24:48.664Z,1021.42
2022-08-10T01:26:11.676Z,1021.42
2022-08-10T01:26:49.255Z,1021.41
2022-08-10T01:27:48.772Z,1021.40
2022-08-10T01:28:49.108Z,1021.39
2022-08-10T01:29:48.926Z,1021.39
2022-08-10T01:30:48.879Z,1021.37
2022-08-10T01:31:48.922Z,1021.38
2022-08-10T01:32:48.948Z,1021.39
2022-08-10T01:33:58.341Z,1021.38
2022-08-10T01:34:49.015Z,1021.38
2022-08-10T01:35:49.051Z,1021.34
2022-08-10T01:37:52.239Z,1021.36
2022-08-10T01:38:49.158Z,1021.34
2022-08-10T01:39:49.353Z,1021.35
2022-08-10T01:40:49.527Z,1021.33
2022-08-10T01:41:49.262Z,1021.37
2022-08-10T01:42:49.297Z,1021.35
2022-08-10T01:43:49.336Z,1021.34
2022-08-10T01:44:49.371Z,1021.33
2022-08-10T01:45:49.407Z,1021.36
2022-08-10T01:46:53.161Z,1021.35
2022-08-10T01:47:49.478Z,1021.33
2022-08-10T01:48:49.513Z,1021.33
2022-08-10T01:49:49.551Z,1021.35
2022-08-10T01:50:53.265Z,1021.35
2022-08-10T01:51:49.617Z,1021.34
2022-08-10T01:52:49.654Z,1021.33
2022-08-10T01:54:49.978Z,1021.30
2022-08-10T01:55:49.761Z,1021.36
2022-08-10T01:56:49.799Z,1021.34
2022-08-10T01:57:49.832Z,1021.37
2022-08-10T01:58:49.866Z,1021.35
2022-08-10T01:59:58.729Z,1021.35
2022-08-10T02:00:50.038Z,1021.34
2022-08-10T02:01:49.972Z,1021.33
2022-08-10T02:04:50.077Z,1021.36
2022-08-10T02:06:50.146Z,1021.36
2022-08-10T02:07:50.434Z,1021.36
2022-08-10T02:08:50.219Z,1021.37
2022-08-10T02:09:50.254Z,1021.37
2022-08-10T02:10:50.288Z,1021.37
2022-08-10T02:12:06.317Z,1021.42
2022-08-10T02:12:50.358Z,1021.38
2022-08-10T02:13:50.394Z,1021.35
2022-08-10T02:14:50.736Z,1021.38
2022-08-10T02:16:01.884Z,1021.38
2022-08-10T02:17:59.431Z,1021.39
2022-08-10T02:18:50.575Z,1021.41
2022-08-10T02:19:50.609Z,1021.39
2022-08-10T02:20:50.643Z,1021.35
2022-08-10T02:22:34.995Z,1021.36
2022-08-10T02:22:51.259Z,1021.36
2022-08-10T02:23:59.657Z,1021.34
2022-08-10T02:24:50.782Z,1021.31
2022-08-10T02:25:50.820Z,1021.34
2022-08-10T02:26:50.854Z,1021.34
2022-08-10T02:27:50.889Z,1021.38
2022-08-10T02:28:51.226Z,1021.37
2022-08-10T02:29:50.989Z,1021.40
2022-08-10T02:30:50.997Z,1021.37
2022-08-10T02:31:51.416Z,1021.40
2022-08-10T02:32:52.948Z,1021.37
2022-08-10T02:33:57.245Z,1021.37
2022-08-10T02:34:51.138Z,1021.38
2022-08-10T02:35:54.145Z,1021.37
2022-08-10T02:36:51.209Z,1021.38
2022-08-10T02:37:51.262Z,1021.38
2022-08-10T02:39:51.314Z,1021.40
2022-08-10T02:45:12.322Z,1021.40
2022-08-10T02:45:15.318Z,1021.39
2022-08-10T02:45:19.340Z,1021.41
2022-08-10T02:45:19.721Z,1021.42
2022-08-10T02:45:21.692Z,1021.40
2022-08-10T02:45:51.526Z,1021.40
2022-08-10T02:47:52.679Z,1021.45
2022-08-10T02:50:51.700Z,1021.44
2022-08-10T02:52:07.230Z,1021.44
2022-08-10T02:52:51.779Z,1021.42
2022-08-10T02:53:56.929Z,1021.39
2022-08-10T02:55:51.878Z,1021.40
2022-08-10T02:58:13.339Z,1021.36
2022-08-10T02:58:52.284Z,1021.35
2022-08-10T02:59:52.015Z,1021.37
2022-08-10T03:00:52.185Z,1021.35
2022-08-10T03:01:52.086Z,1021.37
2022-08-10T03:03:52.163Z,1021.36
2022-08-10T03:04:55.117Z,1021.38
2022-08-10T03:05:52.481Z,1021.32
2022-08-10T03:06:52.264Z,1021.34
2022-08-10T03:07:52.300Z,1021.34
2022-08-10T03:08:52.331Z,1021.32
2022-08-10T03:09:52.369Z,1021.34
2022-08-10T03:10:52.405Z,1021.32
2022-08-10T03:12:36.420Z,1021.33
2022-08-10T03:12:52.876Z,1021.32
2022-08-10T03:13:52.826Z,1021.31
2022-08-10T03:14:52.546Z,1021.30
2022-08-10T03:15:52.585Z,1021.31
2022-08-10T03:16:52.614Z,1021.30
2022-08-10T03:17:57.227Z,1021.30
2022-08-10T03:18:52.987Z,1021.27
2022-08-10T03:20:34.806Z,1021.29
2022-08-10T03:20:52.795Z,1021.28
2022-08-10T03:21:52.793Z,1021.27
2022-08-10T03:22:52.830Z,1021.27
2022-08-10T03:23:52.865Z,1021.32
2022-08-10T03:24:52.899Z,1021.28
2022-08-10T03:25:54.763Z,1021.33
2022-08-10T03:26:52.966Z,1021.33
2022-08-10T03:27:53.002Z,1021.35
2022-08-10T03:28:53.035Z,1021.31
2022-08-10T03:30:29.468Z,1021.32
2022-08-10T03:30:53.107Z,1021.30
2022-08-10T03:31:53.144Z,1021.27
2022-08-10T03:32:53.823Z,1021.27
2022-08-10T03:33:53.217Z,1021.24
2022-08-10T03:34:53.253Z,1021.24
2022-08-10T03:36:43.889Z,1021.25
2022-08-10T03:36:53.318Z,1021.24
2022-08-10T03:37:55.776Z,1021.25
2022-08-10T03:38:53.709Z,1021.25
2022-08-10T03:39:53.484Z,1021.25
2022-08-10T03:41:54.219Z,1021.24
2022-08-10T03:42:53.530Z,1021.22
2022-08-10T03:43:53.565Z,1021.22
2022-08-10T03:44:53.903Z,1021.24
2022-08-10T03:45:55.359Z,1021.20
2022-08-10T03:47:53.708Z,1021.22
2022-08-10T03:48:53.764Z,1021.20
2022-08-10T03:49:53.789Z,1021.21
2022-08-10T03:50:54.062Z,1021.21
2022-08-10T03:51:53.847Z,1021.19
2022-08-10T03:52:53.894Z,1021.18
2022-08-10T03:54:05.127Z,1021.18
2022-08-10T03:54:53.953Z,1021.20
2022-08-10T03:56:29.665Z,1021.23
2022-08-10T03:56:54.022Z,1021.21
2022-08-10T03:57:54.310Z,1021.22
2022-08-10T03:58:54.091Z,1021.23
2022-08-10T03:59:54.130Z,1021.23
2022-08-10T04:00:54.178Z,1021.22
2022-08-10T04:02:45.681Z,1021.21
2022-08-10T04:02:54.729Z,1021.24
2022-08-10T04:04:13.080Z,1021.20
2022-08-10T04:04:54.601Z,1021.21
2022-08-10T04:05:54.339Z,1021.26
2022-08-10T04:06:55.382Z,1021.24
2022-08-10T04:07:54.410Z,1021.26
2022-08-10T04:08:54.442Z,1021.27
2022-08-10T04:09:56.430Z,1021.30
2022-08-10T04:10:54.911Z,1021.29
2022-08-10T04:11:54.553Z,1021.28
2022-08-10T04:12:54.583Z,1021.28
2022-08-10T04:13:54.619Z,1021.29
2022-08-10T04:14:54.652Z,1021.27
2022-08-10T04:15:54.697Z,1021.30
2022-08-10T04:16:54.724Z,1021.28
2022-08-10T04:18:55.048Z,1021.27
2022-08-10T04:20:54.865Z,1021.31
2022-08-10T04:21:54.941Z,1021.26
2022-08-10T04:22:54.939Z,1021.27
2022-08-10T04:23:54.973Z,1021.26
2022-08-10T04:24:55.004Z,1021.28
2022-08-10T04:25:55.339Z,1021.34
2022-08-10T04:26:55.180Z,1021.31
2022-08-10T04:27:55.119Z,1021.29
2022-08-10T04:28:55.143Z,1021.33
2022-08-10T04:29:55.189Z,1021.35
2022-08-10T04:30:55.213Z,1021.37
2022-08-10T04:32:55.296Z,1021.36
2022-08-10T04:33:55.570Z,1021.34
2022-08-10T04:34:55.356Z,1021.38
2022-08-10T04:35:55.389Z,1021.37
2022-08-10T04:36:55.426Z,1021.37
2022-08-10T04:37:55.563Z,1021.37
2022-08-10T04:38:55.496Z,1021.35
2022-08-10T04:39:55.533Z,1021.38
2022-08-10T04:41:55.858Z,1021.38
2022-08-10T04:42:55.635Z,1021.39
2022-08-10T04:43:55.678Z,1021.38
2022-08-10T04:44:55.710Z,1021.37
2022-08-10T04:45:55.799Z,1021.39
2022-08-10T04:46:59.309Z,1021.34
2022-08-10T04:48:00.354Z,1021.35
2022-08-10T04:49:01.349Z,1021.37
2022-08-10T04:49:56.992Z,1021.34
2022-08-10T04:50:55.922Z,1021.36
2022-08-10T04:51:55.955Z,1021.32
2022-08-10T04:52:56.009Z,1021.32
2022-08-10T04:54:02.865Z,1021.30
2022-08-10T04:54:56.070Z,1021.32
2022-08-10T04:55:56.399Z,1021.35
2022-08-10T04:56:56.127Z,1021.33
2022-08-10T04:57:56.162Z,1021.32
2022-08-10T04:58:56.198Z,1021.30
2022-08-10T04:59:56.233Z,1021.34
2022-08-10T05:00:56.323Z,1021.34
2022-08-10T05:02:28.468Z,1021.33
2022-08-10T05:02:56.336Z,1021.37
2022-08-10T05:04:34.488Z,1021.35
2022-08-10T05:04:56.407Z,1021.38
2022-08-10T05:05:56.444Z,1021.36
2022-08-10T05:06:56.484Z,1021.38
2022-08-10T05:07:56.925Z,1021.38
2022-08-10T05:08:56.850Z,1021.39
2022-08-10T05:10:02.606Z,1021.41
2022-08-10T05:10:56.618Z,1021.40
2022-08-10T05:11:56.652Z,1021.41
2022-08-10T05:12:56.686Z,1021.39
2022-08-10T05:14:57.030Z,1021.42
2022-08-10T05:15:56.798Z,1021.43
2022-08-10T05:16:56.930Z,1021.39
2022-08-10T05:18:08.636Z,1021.40
2022-08-10T05:18:56.903Z,1021.40
2022-08-10T05:20:57.369Z,1021.43
2022-08-10T05:22:57.042Z,1021.48
2022-08-10T05:23:57.076Z,1021.48
2022-08-10T05:24:57.115Z,1021.43
2022-08-10T05:25:57.142Z,1021.45
2022-08-10T05:27:09.620Z,1021.45
2022-08-10T05:27:57.758Z,1021.46
2022-08-10T05:28:57.249Z,1021.47
2022-08-10T05:30:02.581Z,1021.50
2022-08-10T05:30:57.320Z,1021.51
2022-08-10T05:33:57.676Z,1021.54
2022-08-10T05:34:57.467Z,1021.53
2022-08-10T05:35:58.374Z,1021.52
2022-08-10T05:36:57.532Z,1021.52
2022-08-10T05:38:11.947Z,1021.52
2022-08-10T05:39:57.998Z,1021.54
2022-08-10T05:40:57.902Z,1021.52
2022-08-10T05:41:58.357Z,1021.56
2022-08-10T05:42:57.739Z,1021.56
2022-08-10T05:43:57.774Z,1021.55
2022-08-10T05:44:57.808Z,1021.57
2022-08-10T05:46:16.947Z,1021.57
2022-08-10T05:46:57.883Z,1021.57
2022-08-10T05:48:54.049Z,1021.52
2022-08-10T05:49:01.274Z,1021.57
2022-08-10T05:49:57.987Z,1021.57
2022-08-10T05:50:58.018Z,1021.59
2022-08-10T05:51:58.063Z,1021.60
2022-08-10T05:52:58.088Z,1021.61
2022-08-10T05:54:02.805Z,1021.61
2022-08-10T05:55:02.595Z,1021.63
2022-08-10T05:55:58.201Z,1021.62
2022-08-10T05:56:58.515Z,1021.63
2022-08-10T05:57:58.266Z,1021.60
2022-08-10T05:58:58.547Z,1021.61
2022-08-10T06:00:34.552Z,1021.62
2022-08-10T06:00:58.440Z,1021.58
2022-08-10T06:02:34.042Z,1021.62
2022-08-10T06:02:58.439Z,1021.64
2022-08-10T06:03:58.492Z,1021.60
2022-08-10T06:04:58.511Z,1021.64
2022-08-10T06:05:58.799Z,1021.66
2022-08-10T06:06:58.597Z,1021.63
2022-08-10T06:07:58.620Z,1021.63
2022-08-10T06:08:58.649Z,1021.60
2022-08-10T06:10:00.286Z,1021.62
2022-08-10T06:12:25.491Z,1021.63
2022-08-10T06:12:26.405Z,1021.60
2022-08-10T06:13:01.458Z,1021.60
2022-08-10T06:14:03.959Z,1021.60
2022-08-10T06:14:59.696Z,1021.61
2022-08-10T06:15:58.999Z,1021.62
2022-08-10T06:16:58.929Z,1021.64
2022-08-10T06:18:02.262Z,1021.63
2022-08-10T06:18:59.052Z,1021.63
2022-08-10T06:19:59.095Z,1021.65
2022-08-10T06:20:59.072Z,1021.66
2022-08-10T06:22:01.340Z,1021.65
2022-08-10T06:22:59.153Z,1021.66
2022-08-10T06:23:59.479Z,1021.62
2022-08-10T06:25:31.975Z,1021.64
2022-08-10T06:26:10.808Z,1021.67
2022-08-10T06:26:59.289Z,1021.63
2022-08-10T06:27:59.320Z,1021.66
2022-08-10T06:29:02.838Z,1021.67
2022-08-10T06:29:59.390Z,1021.70
2022-08-10T06:31:59.711Z,1021.76
2022-08-10T06:32:59.496Z,1021.75
2022-08-10T06:33:59.531Z,1021.73
2022-08-10T06:34:59.562Z,1021.74
2022-08-10T06:35:59.602Z,1021.72
2022-08-10T06:36:59.646Z,1021.71
2022-08-10T06:37:59.971Z,1021.70
2022-08-10T06:39:23.071Z,1021.71
2022-08-10T06:39:59.775Z,1021.73
2022-08-10T06:40:59.773Z,1021.73
2022-08-10T06:42:16.536Z,1021.71
2022-08-10T06:42:59.844Z,1021.70
2022-08-10T06:43:59.878Z,1021.72
2022-08-10T06:45:00.245Z,1021.70
2022-08-10T06:46:07.663Z,1021.73
2022-08-10T06:46:59.984Z,1021.71
2022-08-10T06:48:00.027Z,1021.70
2022-08-10T06:49:00.078Z,1021.76
2022-08-10T06:50:01.536Z,1021.72
2022-08-10T06:54:00.533Z,1021.66
2022-08-10T06:55:00.536Z,1021.66
2022-08-10T06:56:00.406Z,1021.67
2022-08-10T06:57:18.071Z,1021.70
2022-08-10T06:58:00.620Z,1021.69
2022-08-10T07:00:01.050Z,1021.70
2022-08-10T07:02:00.518Z,1021.71
2022-08-10T07:03:00.548Z,1021.72
2022-08-10T07:04:00.585Z,1021.69
2022-08-10T07:05:00.618Z,1021.71
2022-08-10T07:06:00.657Z,1021.70
2022-08-10T07:07:00.988Z,1021.72
2022-08-10T07:08:00.722Z,1021.74
2022-08-10T07:09:00.762Z,1021.74
2022-08-10T07:10:00.794Z,1021.73
2022-08-10T07:11:00.831Z,1021.72
2022-08-10T07:12:07.890Z,1021.73
2022-08-10T07:13:00.899Z,1021.75
2022-08-10T07:14:15.859Z,1021.70
2022-08-10T07:15:03.598Z,1021.73
2022-08-10T07:16:01.007Z,1021.74
2022-08-10T07:17:01.049Z,1021.73
2022-08-10T07:18:01.074Z,1021.73
2022-08-10T07:19:01.110Z,1021.71
2022-08-10T07:20:01.146Z,1021.75
2022-08-10T07:21:01.479Z,1021.72
2022-08-10T07:22:01.212Z,1021.76
2022-08-10T07:23:55.160Z,1021.69
2022-08-10T07:24:01.490Z,1021.72
2022-08-10T07:25:01.318Z,1021.71
2022-08-10T07:26:01.444Z,1021.72
2022-08-10T07:27:01.385Z,1021.70
2022-08-10T07:28:02.173Z,1021.73
2022-08-10T07:29:01.452Z,1021.74
2022-08-10T07:30:01.486Z,1021.75
2022-08-10T07:31:01.517Z,1021.73
2022-08-10T07:33:01.661Z,1021.75
2022-08-10T07:34:01.620Z,1021.75
2022-08-10T07:35:01.908Z,1021.76
2022-08-10T07:36:01.685Z,1021.75
2022-08-10T07:37:01.716Z,1021.75
2022-08-10T07:38:01.756Z,1021.77
2022-08-10T07:39:01.785Z,1021.78
2022-08-10T07:40:03.570Z,1021.79
2022-08-10T07:41:01.854Z,1021.78
2022-08-10T07:42:02.186Z,1021.77
2022-08-10T07:43:01.917Z,1021.78
2022-08-10T07:44:01.954Z,1021.82
2022-08-10T07:45:02.033Z,1021.79
2022-08-10T07:46:02.017Z,1021.77
2022-08-10T07:47:02.052Z,1021.80
2022-08-10T07:48:07.245Z,1021.82
2022-08-10T07:49:02.365Z,1021.78
2022-08-10T07:50:02.252Z,1021.78
2022-08-10T07:51:02.190Z,1021.82
2022-08-10T07:52:02.215Z,1021.78
2022-08-10T07:53:02.246Z,1021.87
2022-08-10T07:54:02.286Z,1021.84
2022-08-10T07:55:02.315Z,1021.82
2022-08-10T07:56:16.547Z,1021.81
2022-08-10T07:57:02.383Z,1021.83
2022-08-10T07:58:02.418Z,1021.83
2022-08-10T07:59:02.447Z,1021.79
2022-08-10T08:00:02.482Z,1021.79
2022-08-10T08:01:02.512Z,1021.85
2022-08-10T08:02:02.690Z,1021.83
2022-08-10T08:03:02.979Z,1021.81
2022-08-10T08:04:05.492Z,1021.81
2022-08-10T08:05:02.647Z,1021.82
2022-08-10T08:06:09.022Z,1021.82
2022-08-10T08:07:02.711Z,1021.82
2022-08-10T08:08:02.958Z,1021.83
2022-08-10T08:09:02.776Z,1021.83
2022-08-10T08:10:03.068Z,1021.85
2022-08-10T08:11:02.975Z,1021.88
2022-08-10T08:12:02.880Z,1021.88
2022-08-10T08:13:02.913Z,1021.90
2022-08-10T08:14:02.946Z,1021.89
2022-08-10T08:16:17.052Z,1021.87
2022-08-10T08:16:18.013Z,1021.86
2022-08-10T08:17:03.341Z,1021.91
2022-08-10T08:18:03.648Z,1021.88
2022-08-10T08:19:28.585Z,1021.91
2022-08-10T08:20:03.291Z,1021.92
2022-08-10T08:21:03.289Z,1021.89
2022-08-10T08:24:07.518Z,1021.91
2022-08-10T08:24:07.660Z,1021.89
2022-08-10T08:24:21.683Z,1021.86
2022-08-10T08:25:03.309Z,1021.90
2022-08-10T08:26:03.346Z,1021.91
2022-08-10T08:27:03.384Z,1021.94
2022-08-10T08:28:03.705Z,1021.91
2022-08-10T08:29:04.785Z,1021.89
2022-08-10T08:30:03.476Z,1021.91
2022-08-10T08:31:03.502Z,1021.90
2022-08-10T08:32:04.006Z,1021.89
2022-08-10T08:33:03.568Z,1021.89
2022-08-10T08:34:03.607Z,1021.88
2022-08-10T08:35:03.889Z,1021.89
2022-08-10T08:36:03.669Z,1021.84
2022-08-10T08:37:03.697Z,1021.86
2022-08-10T08:38:32.554Z,1021.84
2022-08-10T08:39:03.768Z,1021.84
2022-08-10T08:40:04.010Z,1021.84
2022-08-10T08:41:03.831Z,1021.82
2022-08-10T08:42:03.865Z,1021.83
2022-08-10T08:43:03.899Z,1021.80
2022-08-10T08:44:03.933Z,1021.79
2022-08-10T08:45:03.963Z,1021.77
2022-08-10T08:46:03.999Z,1021.79
2022-08-10T08:47:04.029Z,1021.77
2022-08-10T08:48:06.446Z,1021.80
2022-08-10T08:49:04.094Z,1021.76
2022-08-10T08:50:08.292Z,1021.75
2022-08-10T08:51:04.163Z,1021.75
2022-08-10T08:52:09.419Z,1021.74
2022-08-10T08:53:12.797Z,1021.73
2022-08-10T08:54:04.333Z,1021.68
2022-08-10T08:55:04.552Z,1021.72
2022-08-10T08:56:07.109Z,1021.65
2022-08-10T08:57:04.358Z,1021.66
2022-08-10T08:58:04.394Z,1021.64
2022-08-10T08:59:04.459Z,1021.63
2022-08-10T09:00:04.461Z,1021.63
2022-08-10T09:01:04.496Z,1021.64
2022-08-10T09:02:04.910Z,1021.62
2022-08-10T09:03:04.558Z,1021.62
2022-08-10T09:04:04.593Z,1021.61
2022-08-10T09:05:04.622Z,1021.56
2022-08-10T09:06:04.656Z,1021.59
2022-08-10T09:07:04.730Z,1021.52
2022-08-10T09:08:04.723Z,1021.55
2022-08-10T09:09:04.766Z,1021.51
2022-08-10T09:11:04.840Z,1021.53
2022-08-10T09:12:04.856Z,1021.53
2022-08-10T09:13:04.892Z,1021.51
2022-08-10T09:14:04.925Z,1021.50
2022-08-10T09:15:05.211Z,1021.51
2022-08-10T09:16:05.037Z,1021.49
2022-08-10T09:17:05.022Z,1021.50
2022-08-10T09:18:05.052Z,1021.47
2022-08-10T09:19:05.090Z,1021.46
2022-08-10T09:20:05.128Z,1021.48
2022-08-10T09:21:05.409Z,1021.46
2022-08-10T09:22:17.513Z,1021.45
2022-08-10T09:23:05.233Z,1021.44
2022-08-10T09:24:06.283Z,1021.42
2022-08-10T09:25:05.284Z,1021.46
2022-08-10T09:26:05.319Z,1021.43
2022-08-10T09:27:05.654Z,1021.42
2022-08-10T09:28:05.384Z,1021.42
2022-08-10T09:29:12.438Z,1021.38
2022-08-10T09:30:05.455Z,1021.36
2022-08-10T09:31:22.824Z,1021.35
2022-08-10T09:36:16.506Z,1021.31
2022-08-10T09:36:19.797Z,1021.34
2022-08-10T09:36:20.912Z,1021.29
2022-08-10T09:36:22.618Z,1021.32
2022-08-10T09:36:27.870Z,1021.33
2022-08-10T09:37:05.697Z,1021.34
2022-08-10T09:38:05.715Z,1021.30
2022-08-10T09:39:05.811Z,1021.26
2022-08-10T09:40:57.151Z,1021.25
2022-08-10T09:41:12.802Z,1021.23
2022-08-10T09:42:05.846Z,1021.21
2022-08-10T09:43:24.954Z,1021.20
2022-08-10T09:44:05.921Z,1021.23
2022-08-10T09:45:05.948Z,1021.23
2022-08-10T09:46:06.053Z,1021.26
2022-08-10T09:47:06.316Z,1021.20
2022-08-10T09:48:06.044Z,1021.22
2022-08-10T09:49:06.077Z,1021.22
2022-08-10T09:50:06.110Z,1021.21
2022-08-10T09:52:06.175Z,1021.20
2022-08-10T09:53:06.210Z,1021.16
2022-08-10T09:54:06.554Z,1021.14
2022-08-10T09:55:06.282Z,1021.12
2022-08-10T09:56:19.143Z,1021.14
2022-08-10T09:57:44.516Z,1021.12
2022-08-10T09:58:06.380Z,1021.16
2022-08-10T09:59:27.163Z,1021.13
2022-08-10T10:00:06.444Z,1021.12
2022-08-10T10:01:06.477Z,1021.13
2022-08-10T10:02:06.509Z,1021.10
2022-08-10T10:03:06.740Z,1021.13
2022-08-10T10:04:06.573Z,1021.11
2022-08-10T10:05:06.611Z,1021.12
2022-08-10T10:06:06.645Z,1021.13
2022-08-10T10:07:06.926Z,1021.10
2022-08-10T10:08:06.710Z,1021.04
2022-08-10T10:09:10.332Z,1021.07
2022-08-10T10:10:06.774Z,1021.06
2022-08-10T10:11:06.814Z,1021.04
2022-08-10T10:12:09.879Z,1021.07
2022-08-10T10:13:06.873Z,1021.00
2022-08-10T10:14:11.860Z,1020.97
2022-08-10T10:15:06.943Z,1020.99
2022-08-10T10:16:06.974Z,1020.94
2022-08-10T10:17:07.005Z,1020.91
2022-08-10T10:18:07.042Z,1020.88
2022-08-10T10:19:07.074Z,1020.87
2022-08-10T10:20:07.119Z,1020.85
2022-08-10T10:21:07.448Z,1020.85
2022-08-10T10:22:07.173Z,1020.81
2022-08-10T10:23:07.211Z,1020.79
2022-08-10T10:24:22.202Z,1020.77
2022-08-10T10:25:19.972Z,1020.78
2022-08-10T10:26:15.921Z,1020.73
2022-08-10T10:27:16.535Z,1020.75
2022-08-10T10:28:07.369Z,1020.72
2022-08-10T10:29:30.695Z,1020.75
2022-08-10T10:30:09.449Z,1020.75
2022-08-10T10:31:16.371Z,1020.73
2022-08-10T10:32:07.516Z,1020.74
2022-08-10T10:33:07.837Z,1020.70
2022-08-10T10:34:07.578Z,1020.71
2022-08-10T10:35:07.603Z,1020.70
2022-08-10T10:37:07.666Z,1020.70
2022-08-10T10:38:07.701Z,1020.67
2022-08-10T10:39:08.112Z,1020.72
2022-08-10T10:40:07.770Z,1020.65
2022-08-10T10:41:07.806Z,1020.71
2022-08-10T10:42:14.754Z,1020.71
2022-08-10T10:43:07.867Z,1020.66
2022-08-10T10:44:07.899Z,1020.67
2022-08-10T10:45:07.947Z,1020.64
2022-08-10T10:46:08.272Z,1020.63
2022-08-10T10:47:08.001Z,1020.66
2022-08-10T10:48:08.040Z,1020.59
2022-08-10T10:49:08.067Z,1020.61
2022-08-10T10:50:08.101Z,1020.55
2022-08-10T10:51:10.658Z,1020.53
2022-08-10T10:52:08.167Z,1020.50
2022-08-10T10:53:08.456Z,1020.50
2022-08-10T10:54:08.234Z,1020.47
2022-08-10T10:55:08.266Z,1020.45
2022-08-10T10:56:14.929Z,1020.47
2022-08-10T10:57:08.342Z,1020.42
2022-08-10T10:58:08.366Z,1020.41
2022-08-10T11:00:08.685Z,1020.37
2022-08-10T11:01:08.497Z,1020.36
2022-08-10T11:02:08.501Z,1020.36
2022-08-10T11:03:08.545Z,1020.35
2022-08-10T11:04:08.570Z,1020.40
2022-08-10T11:05:08.613Z,1020.36
2022-08-10T11:06:09.776Z,1020.35
2022-08-10T11:07:09.967Z,1020.34
2022-08-10T11:08:08.706Z,1020.29
2022-08-10T11:09:09.576Z,1020.31
2022-08-10T11:10:32.676Z,1020.27
2022-08-10T11:11:13.057Z,1020.26
2022-08-10T11:12:08.835Z,1020.29
2022-08-10T11:14:24.599Z,1020.26
2022-08-10T11:14:26.972Z,1020.25
2022-08-10T11:15:08.934Z,1020.21
2022-08-10T11:16:08.974Z,1020.23
2022-08-10T11:17:09.050Z,1020.23
2022-08-10T11:18:09.035Z,1020.23
2022-08-10T11:20:09.393Z,1020.17
2022-08-10T11:21:09.141Z,1020.19
2022-08-10T11:22:12.338Z,1020.14
2022-08-10T11:23:09.202Z,1020.14
2022-08-10T11:24:46.893Z,1020.16
2022-08-10T11:25:09.271Z,1020.14
2022-08-10T11:26:09.550Z,1020.12
2022-08-10T11:27:09.335Z,1020.13
2022-08-10T11:28:09.366Z,1020.14
2022-08-10T11:29:09.404Z,1020.15
2022-08-10T11:30:09.451Z,1020.17
2022-08-10T11:31:09.466Z,1020.12
2022-08-10T11:32:09.757Z,1020.09
2022-08-10T11:33:09.535Z,1020.11
2022-08-10T11:34:48.401Z,1020.11
2022-08-10T11:35:11.728Z,1020.13
2022-08-10T11:36:09.638Z,1020.10
2022-08-10T11:37:09.670Z,1020.05
2022-08-10T11:38:30.390Z,1020.10
2022-08-10T11:39:16.864Z,1020.07
2022-08-10T11:40:09.926Z,1020.05
2022-08-10T11:42:06.499Z,1020.04
2022-08-10T11:42:18.507Z,1020.08
2022-08-10T11:43:09.871Z,1020.05
2022-08-10T11:44:10.199Z,1020.04
2022-08-10T11:45:09.937Z,1020.04
2022-08-10T11:46:09.965Z,1020.05
2022-08-10T11:47:10.010Z,1020.05
2022-08-10T11:48:10.034Z,1020.01
2022-08-10T11:49:10.066Z,1020.02
2022-08-10T11:50:10.110Z,1019.99
2022-08-10T11:51:10.389Z,1019.99
2022-08-10T11:52:10.168Z,1020.00
2022-08-10T11:53:10.200Z,1019.93
2022-08-10T11:54:10.251Z,1019.93
2022-08-10T11:55:10.268Z,1019.96
2022-08-10T11:56:11.134Z,1019.92
2022-08-10T11:57:10.338Z,1019.89
2022-08-10T11:58:10.621Z,1019.93
2022-08-10T11:59:17.000Z,1019.91
2022-08-10T12:00:10.535Z,1019.87
2022-08-10T12:01:10.476Z,1019.87
2022-08-10T12:02:10.523Z,1019.87
2022-08-10T12:03:10.659Z,1019.87
2022-08-10T12:04:12.090Z,1019.86
2022-08-10T12:05:10.959Z,1019.86
2022-08-10T12:06:10.636Z,1019.86
2022-08-10T12:10:04.020Z,1019.81
2022-08-10T12:10:07.419Z,1019.89
2022-08-10T12:10:09.525Z,1019.84
2022-08-10T12:10:13.848Z,1019.81
2022-08-10T12:11:10.807Z,1019.80
2022-08-10T12:12:11.136Z,1019.81
2022-08-10T12:13:10.873Z,1019.81
2022-08-10T12:14:21.514Z,1019.78
2022-08-10T12:15:10.940Z,1019.79
2022-08-10T12:16:10.972Z,1019.77
2022-08-10T12:17:11.005Z,1019.78
2022-08-10T12:18:11.037Z,1019.72
2022-08-10T12:19:11.375Z,1019.75
2022-08-10T12:20:11.104Z,1019.72
2022-08-10T12:21:11.137Z,1019.72
2022-08-10T12:22:11.170Z,1019.69
2022-08-10T12:23:11.315Z,1019.71
2022-08-10T12:25:11.548Z,1019.62
2022-08-10T12:26:11.307Z,1019.64
2022-08-10T12:27:13.104Z,1019.61
2022-08-10T12:28:11.377Z,1019.61
2022-08-10T12:29:11.404Z,1019.61
2022-08-10T12:30:11.447Z,1019.63
2022-08-10T12:31:11.473Z,1019.59
2022-08-10T12:32:11.810Z,1019.62
2022-08-10T12:33:11.540Z,1019.64
2022-08-10T12:34:11.578Z,1019.60
2022-08-10T12:35:11.612Z,1019.61
2022-08-10T12:36:18.986Z,1019.59
2022-08-10T12:37:11.682Z,1019.58
2022-08-10T12:38:11.961Z,1019.54
2022-08-10T12:39:11.842Z,1019.52
2022-08-10T12:40:34.366Z,1019.52
2022-08-10T12:41:11.810Z,1019.49
2022-08-10T12:42:11.846Z,1019.45
2022-08-10T12:44:03.785Z,1019.47
2022-08-10T12:44:12.029Z,1019.49
2022-08-10T12:45:11.941Z,1019.47
2022-08-10T12:46:11.986Z,1019.44
2022-08-10T12:47:14.542Z,1019.46
2022-08-10T12:48:12.045Z,1019.46